Time;durP1;ratioP1;P1;durP2;ratioP2;P2;SDS_P1;SDS_P2;PMS_P1;PMS_P2;Temp;Humidity;BMP_temperature;BMP_pressure;BME280_temperature;BME280_humidity;BME280_pressure;Samples;Min_cycle;Max_cycle;Signal;HPM_P1;HPM_P2
2023/12/04 00:02:20;;;;;;;1.77;0.50;;;;;;;-4.36;96.70;101600.78;5094668;28;20527;-65
2023/12/04 00:04:46;;;;;;;3.33;1.10;;;;;;;-4.45;96.28;101599.19;5094182;28;20459;-65
2023/12/04 00:07:13;;;;;;;2.00;0.70;;;;;;;-4.54;96.20;101601.06;5094152;28;20577;-65
2023/12/04 00:09:40;;;;;;;2.30;0.93;;;;;;;-4.58;96.46;101592.66;5094083;28;20444;-65
2023/12/04 00:12:07;;;;;;;1.80;0.40;;;;;;;-4.59;96.38;101600.78;5093822;28;20466;-64
2023/12/04 00:14:33;;;;;;;1.77;0.50;;;;;;;-4.66;96.07;101598.00;5093969;28;20558;-64
2023/12/04 00:17:00;;;;;;;1.70;0.40;;;;;;;-4.67;95.73;101601.66;5094390;28;20996;-64
2023/12/04 00:19:28;;;;;;;18.23;2.00;;;;;;;-4.78;95.69;101595.94;5093955;28;20468;-64
2023/12/04 00:21:55;;;;;;;1.70;0.40;;;;;;;-4.76;96.06;101593.97;5093775;28;20436;-65
2023/12/04 00:24:21;;;;;;;1.80;0.50;;;;;;;-4.70;95.96;101593.25;5093721;28;20862;-65
2023/12/04 00:26:48;;;;;;;1.80;0.43;;;;;;;-4.68;95.70;101602.66;5093795;28;20975;-65
2023/12/04 00:29:15;;;;;;;1.90;0.70;;;;;;;-4.68;95.35;101604.47;5093588;28;20480;-64
2023/12/04 00:31:41;;;;;;;1.70;0.43;;;;;;;-4.72;95.12;101600.53;5093714;28;20528;-64
2023/12/04 00:34:08;;;;;;;1.80;0.40;;;;;;;-4.87;95.12;101600.44;5093337;28;20494;-65
2023/12/04 00:36:36;;;;;;;12.50;2.00;;;;;;;-4.88;95.31;101604.91;5093716;28;21019;-65
2023/12/04 00:39:03;;;;;;;2.30;1.10;;;;;;;-4.90;94.79;101598.19;5094057;28;20437;-65
2023/12/04 00:41:30;;;;;;;1.70;0.30;;;;;;;-4.89;95.07;101599.81;5094111;28;20486;-65
2023/12/04 00:43:57;;;;;;;2.37;0.93;;;;;;;-4.86;94.69;101610.88;5093428;28;20463;-67
2023/12/04 00:46:23;;;;;;;6.73;2.80;;;;;;;-4.85;96.57;101611.69;5093199;28;20484;-65
2023/12/04 00:48:50;;;;;;;1.97;0.60;;;;;;;-4.74;97.47;101607.81;5094328;28;20501;-65
2023/12/04 00:51:16;;;;;;;1.70;0.40;;;;;;;-4.70;98.66;101609.09;5093357;28;20532;-64
2023/12/04 00:53:44;;;;;;;3.77;0.97;;;;;;;-4.62;99.07;101601.94;5093675;28;20457;-66
2023/12/04 00:56:12;;;;;;;1.73;0.50;;;;;;;-4.58;98.61;101605.88;5093554;28;20892;-64
2023/12/04 00:58:38;;;;;;;1.70;0.40;;;;;;;-4.57;99.16;101604.88;5093651;28;20472;-64
2023/12/04 01:01:06;;;;;;;1.70;0.30;;;;;;;-4.51;99.13;101591.97;5093549;28;20206;-64
2023/12/04 01:03:33;;;;;;;7.50;0.90;;;;;;;-4.49;99.50;101595.25;5094078;28;20539;-64
2023/12/04 01:05:59;;;;;;;4.40;0.87;;;;;;;-4.42;99.48;101591.72;5093629;28;20480;-65
2023/12/04 01:08:26;;;;;;;2.47;0.73;;;;;;;-4.33;99.00;101601.25;5093379;28;20443;-64
2023/12/04 01:10:54;;;;;;;1.70;0.30;;;;;;;-4.30;98.90;101594.75;5093695;28;20468;-64
2023/12/04 01:13:21;;;;;;;1.80;0.40;;;;;;;-4.40;98.52;101600.28;5093474;28;20496;-64
2023/12/04 01:15:48;;;;;;;2.27;1.17;;;;;;;-4.42;98.37;101594.38;5093241;28;20515;-64
2023/12/04 01:18:15;;;;;;;3.93;1.07;;;;;;;-4.41;98.25;101588.09;5093616;28;20532;-64
2023/12/04 01:20:42;;;;;;;4.73;1.00;;;;;;;-4.46;98.23;101582.50;5093573;28;20980;-64
2023/12/04 01:23:08;;;;;;;1.73;0.40;;;;;;;-4.50;98.31;101585.69;5093917;28;20440;-64
2023/12/04 01:25:35;;;;;;;5.23;1.03;;;;;;;-4.56;98.97;101581.91;5097234;28;20493;-64
2023/12/04 01:28:03;;;;;;;2.00;0.60;;;;;;;-4.57;98.73;101583.72;5097477;28;20818;-64
2023/12/04 01:30:29;;;;;;;1.80;0.40;;;;;;;-4.55;98.32;101583.56;5097556;28;20498;-64
2023/12/04 01:32:56;;;;;;;1.70;0.30;;;;;;;-4.52;98.38;101569.16;5096698;28;20480;-64
2023/12/04 01:35:22;;;;;;;1.80;0.60;;;;;;;-4.46;99.11;101571.94;5097196;28;20456;-64
2023/12/04 01:37:49;;;;;;;1.70;0.30;;;;;;;-4.42;99.59;101575.88;5096773;28;20580;-66
2023/12/04 01:40:16;;;;;;;2.67;1.13;;;;;;;-4.33;100.00;101569.50;5096896;28;20858;-66
2023/12/04 01:42:43;;;;;;;1.70;0.40;;;;;;;-4.24;100.00;101572.09;5096863;28;20468;-66
2023/12/04 01:45:11;;;;;;;2.40;0.70;;;;;;;-4.22;100.00;101567.44;5096624;28;20544;-66
2023/12/04 01:47:38;;;;;;;1.70;0.50;;;;;;;-4.18;100.00;101561.59;5096621;28;20469;-66
2023/12/04 01:50:07;;;;;;;3.60;1.90;;;;;;;-4.08;100.00;101562.16;5096327;28;21029;-66
2023/12/04 01:52:34;;;;;;;1.90;0.50;;;;;;;-3.95;100.00;101561.53;5096862;28;20447;-66
2023/12/04 01:55:00;;;;;;;4.17;1.43;;;;;;;-3.97;100.00;101552.97;5096159;28;20525;-66
2023/12/04 01:57:27;;;;;;;1.90;0.70;;;;;;;-3.95;100.00;101566.81;5096380;28;20512;-66
2023/12/04 01:59:54;;;;;;;1.90;0.80;;;;;;;-3.92;100.00;101569.13;5096322;28;20459;-66
2023/12/04 02:02:22;;;;;;;2.27;1.33;;;;;;;-3.87;100.00;101564.09;5096287;28;20531;-66
2023/12/04 02:04:49;;;;;;;1.77;0.50;;;;;;;-3.78;100.00;101575.44;5096217;28;20465;-65
2023/12/04 02:07:15;;;;;;;1.90;0.50;;;;;;;-3.73;100.00;101561.66;5095864;28;20451;-65
2023/12/04 02:09:42;;;;;;;7.87;1.77;;;;;;;-3.67;100.00;101555.63;5096483;28;20524;-66
2023/12/04 02:12:09;;;;;;;1.80;0.40;;;;;;;-3.67;100.00;101551.16;5095954;28;20472;-66
2023/12/04 02:14:36;;;;;;;1.70;0.30;;;;;;;-3.54;100.00;101545.22;5096565;28;20460;-65
2023/12/04 02:17:06;;;;;;;2.17;1.13;;;;;;;-3.48;100.00;101543.66;5096008;28;20480;-65
2023/12/04 02:19:34;;;;;;;2.60;0.80;;;;;;;-3.40;100.00;101539.06;5096161;28;20507;-66
2023/12/04 02:22:01;;;;;;;1.77;0.47;;;;;;;-3.41;100.00;101540.09;5096213;28;20523;-65
2023/12/04 02:24:31;;;;;;;1.70;0.40;;;;;;;-3.40;100.00;101539.06;5096099;28;20561;-66
2023/12/04 02:27:05;;;;;;;2.53;1.20;;;;;;;-3.41;100.00;101534.78;5096844;28;20439;-64
2023/12/04 02:29:37;;;;;;;2.03;0.93;;;;;;;-3.36;100.00;101524.47;5095641;28;20510;-66
2023/12/04 02:32:06;;;;;;;2.17;0.60;;;;;;;-3.37;100.00;101517.50;5095939;28;20820;-66
2023/12/04 02:34:34;;;;;;;2.87;1.27;;;;;;;-3.33;100.00;101523.25;5095741;28;20547;-66
2023/12/04 02:37:03;;;;;;;4.80;1.53;;;;;;;-3.26;100.00;101523.34;5095328;28;20516;-66
2023/12/04 02:39:31;;;;;;;2.27;0.77;;;;;;;-3.26;100.00;101523.34;5095852;28;20531;-66
2023/12/04 02:41:58;;;;;;;2.03;0.97;;;;;;;-3.33;100.00;101513.47;5096101;28;20536;-66
2023/12/04 02:44:24;;;;;;;2.30;1.33;;;;;;;-3.35;100.00;101515.50;5095892;28;20464;-66
2023/12/04 02:46:51;;;;;;;2.47;1.13;;;;;;;-3.34;100.00;101506.53;5095896;28;20856;-66
2023/12/04 02:49:18;;;;;;;1.70;0.40;;;;;;;-3.22;100.00;101508.72;5095605;28;20483;-66
2023/12/04 02:51:44;;;;;;;3.57;1.27;;;;;;;-3.25;100.00;101506.44;5095532;28;20440;-66
2023/12/04 02:54:11;;;;;;;27.43;3.50;;;;;;;-3.24;100.00;101505.41;5095597;28;20555;-66
2023/12/04 02:56:39;;;;;;;9.17;2.13;;;;;;;-3.23;100.00;101499.13;5095250;28;20845;-66
2023/12/04 02:59:06;;;;;;;1.80;0.47;;;;;;;-3.23;100.00;101485.88;5095157;28;20999;-66
2023/12/04 03:01:32;;;;;;;1.70;0.30;;;;;;;-3.15;100.00;101491.03;5095460;28;20789;-66
2023/12/04 03:03:59;;;;;;;1.70;0.40;;;;;;;-3.10;100.00;101497.44;5095302;28;20460;-66
2023/12/04 03:06:26;;;;;;;9.10;2.33;;;;;;;-3.10;100.00;101486.84;5095284;28;20471;-66
2023/12/04 03:08:52;;;;;;;1.70;0.37;;;;;;;-3.08;100.00;101484.00;5095046;28;20455;-66
2023/12/04 03:11:19;;;;;;;2.10;0.70;;;;;;;-3.06;100.00;101496.03;5094663;28;20519;-66
2023/12/04 03:13:47;;;;;;;1.80;0.53;;;;;;;-3.03;100.00;101480.78;5094755;28;20464;-66
2023/12/04 03:16:17;;;;;;;4.33;1.80;;;;;;;-3.06;100.00;101479.31;5094566;28;20494;-66
2023/12/04 03:18:44;;;;;;;6.40;2.47;;;;;;;-3.09;100.00;101482.38;5094481;28;20931;-66
2023/12/04 03:21:10;;;;;;;3.20;1.07;;;;;;;-3.07;100.00;101475.03;5095453;28;20546;-66
2023/12/04 03:23:37;;;;;;;3.50;1.03;;;;;;;-3.05;100.00;101473.03;5095087;28;20492;-66
2023/12/04 03:26:04;;;;;;;1.90;0.63;;;;;;;-3.01;100.00;101482.25;5094357;28;20472;-66
2023/12/04 03:28:31;;;;;;;1.70;0.30;;;;;;;-2.98;100.00;101475.72;5094544;28;20479;-66
2023/12/04 03:30:59;;;;;;;1.80;0.40;;;;;;;-3.00;100.00;101475.94;5094782;28;20464;-66
2023/12/04 03:33:25;;;;;;;1.60;0.30;;;;;;;-2.96;100.00;101476.38;5094398;28;20512;-66
2023/12/04 03:35:52;;;;;;;4.97;1.10;;;;;;;-2.98;100.00;101473.91;5094799;28;20475;-66
2023/12/04 03:38:19;;;;;;;2.30;1.20;;;;;;;-2.95;100.00;101475.38;5094373;28;20516;-66
2023/12/04 03:40:45;;;;;;;12.63;2.10;;;;;;;-3.02;100.00;101466.53;5095054;28;20527;-66
2023/12/04 03:43:12;;;;;;;3.10;1.57;;;;;;;-3.01;100.00;101458.41;5094142;28;20528;-66
2023/12/04 03:45:38;;;;;;;1.90;0.53;;;;;;;-2.96;100.00;101463.94;5095059;28;20440;-66
2023/12/04 03:48:07;;;;;;;4.07;1.80;;;;;;;-2.97;100.00;101446.38;5093912;28;20808;-66
2023/12/04 03:50:33;;;;;;;1.70;0.30;;;;;;;-2.90;100.00;101449.91;5094875;28;20472;-66
2023/12/04 03:53:00;;;;;;;7.00;1.00;;;;;;;-2.89;100.00;101442.78;5095248;28;20441;-66
2023/12/04 03:55:27;;;;;;;1.70;0.40;;;;;;;-2.89;100.00;101443.59;5094584;28;20460;-66
2023/12/04 03:57:54;;;;;;;2.10;0.80;;;;;;;-2.90;100.00;101441.16;5094509;28;20511;-65
2023/12/04 04:00:21;;;;;;;2.27;0.80;;;;;;;-2.89;100.00;101450.75;5094747;28;20543;-66
2023/12/04 04:02:47;;;;;;;3.33;1.87;;;;;;;-2.88;100.00;101452.38;5094201;28;20968;-66
2023/12/04 04:05:15;;;;;;;1.70;0.30;;;;;;;-2.87;100.00;101440.78;5094379;28;20478;-66
2023/12/04 04:07:42;;;;;;;2.10;1.00;;;;;;;-2.89;100.00;101443.59;5094083;28;20441;-66
2023/12/04 04:10:09;;;;;;;2.10;0.87;;;;;;;-2.85;100.00;101449.34;5094327;28;20768;-66
2023/12/04 04:12:36;;;;;;;4.20;2.53;;;;;;;-2.92;100.00;101440.50;5093963;28;20483;-66
2023/12/04 04:15:03;;;;;;;3.97;1.50;;;;;;;-2.92;100.00;101445.81;5093843;28;20484;-65
2023/12/04 04:17:29;;;;;;;2.83;1.07;;;;;;;-2.93;100.00;101446.81;5093451;28;20484;-66
2023/12/04 04:19:56;;;;;;;1.73;0.50;;;;;;;-2.93;100.00;101450.28;5093532;28;20468;-65
2023/12/04 04:22:24;;;;;;;2.13;1.07;;;;;;;-2.93;100.00;101449.47;5093839;28;21019;-65
2023/12/04 04:24:51;;;;;;;5.00;2.03;;;;;;;-2.96;100.00;101458.66;5093731;28;20509;-65
2023/12/04 04:27:17;;;;;;;2.10;0.90;;;;;;;-2.96;100.00;101452.53;5093402;28;20464;-65
2023/12/04 04:29:44;;;;;;;1.70;0.40;;;;;;;-2.94;100.00;101448.66;5094037;28;20464;-65
2023/12/04 04:32:11;;;;;;;1.70;0.40;;;;;;;-2.94;100.00;101453.97;5093658;28;20467;-65
2023/12/04 04:34:37;;;;;;;1.70;0.43;;;;;;;-2.95;100.00;101454.97;5093660;28;20498;-65
2023/12/04 04:37:04;;;;;;;2.00;0.80;;;;;;;-2.95;100.00;101451.50;5093925;28;20531;-65
2023/12/04 04:39:32;;;;;;;1.90;0.70;;;;;;;-2.97;100.00;101454.34;5093474;28;20928;-65
2023/12/04 04:41:59;;;;;;;1.70;0.30;;;;;;;-3.02;100.00;101443.50;5093327;28;20479;-65
2023/12/04 04:44:25;;;;;;;3.00;1.70;;;;;;;-3.02;100.00;101440.03;5093598;28;20967;-65
2023/12/04 04:46:52;;;;;;;1.70;0.40;;;;;;;-3.11;100.00;101434.03;5093349;28;20857;-66
2023/12/04 04:49:19;;;;;;;3.90;0.77;;;;;;;-3.09;100.00;101429.38;5093838;28;20464;-66
2023/12/04 04:51:45;;;;;;;1.80;0.50;;;;;;;-3.09;100.00;101424.06;5093791;28;20466;-65
2023/12/04 04:54:12;;;;;;;1.70;0.40;;;;;;;-3.11;100.00;101426.91;5093290;28;20556;-66
2023/12/04 04:56:40;;;;;;;1.80;0.50;;;;;;;-3.06;100.00;101421.03;5093275;28;20948;-65
2023/12/04 04:59:06;;;;;;;1.70;0.40;;;;;;;-3.01;100.00;101421.31;5094693;28;20887;-66
2023/12/04 05:01:33;;;;;;;1.70;0.43;;;;;;;-3.00;99.85;101412.34;5097292;28;20453;-68
2023/12/04 05:04:00;;;;;;;1.67;0.40;;;;;;;-3.02;99.54;101421.47;5097529;28;20492;-65
2023/12/04 05:06:26;;;;;;;1.80;0.53;;;;;;;-3.01;99.64;101423.94;5097947;28;20496;-65
2023/12/04 05:08:53;;;;;;;2.00;0.77;;;;;;;-2.98;99.86;101431.50;5097719;28;20440;-65
2023/12/04 05:11:20;;;;;;;3.13;1.40;;;;;;;-2.99;99.62;101418.44;5097678;28;20532;-65
2023/12/04 05:13:48;;;;;;;1.93;0.80;;;;;;;-2.97;100.00;101417.22;5097300;28;20492;-65
2023/12/04 05:16:15;;;;;;;1.80;0.50;;;;;;;-2.94;100.00;101405.44;5097352;28;20538;-68
2023/12/04 05:18:41;;;;;;;5.43;2.20;;;;;;;-2.92;100.00;101398.09;5097019;28;21056;-65
2023/12/04 05:21:09;;;;;;;2.63;1.23;;;;;;;-2.91;99.77;101394.47;5097689;28;20497;-65
2023/12/04 05:23:36;;;;;;;3.17;1.00;;;;;;;-2.86;99.66;101395.53;5097211;28;20458;-65
2023/12/04 05:26:02;;;;;;;2.03;0.67;;;;;;;-2.86;99.78;101392.88;5096955;28;20790;-64
2023/12/04 05:28:29;;;;;;;3.67;1.20;;;;;;;-2.82;99.38;101391.47;5096955;28;20443;-64
2023/12/04 05:30:57;;;;;;;1.67;0.30;;;;;;;-2.84;99.25;101385.53;5097089;28;20535;-65
2023/12/04 05:33:24;;;;;;;1.70;0.30;;;;;;;-2.87;99.07;101385.13;5096922;28;20463;-65
2023/12/04 05:35:52;;;;;;;4.83;1.10;;;;;;;-2.85;98.94;101383.91;5096811;28;20963;-65
2023/12/04 05:38:19;;;;;;;1.80;0.57;;;;;;;-2.87;98.84;101385.94;5096701;28;20490;-65
2023/12/04 05:40:45;;;;;;;1.70;0.40;;;;;;;-2.89;98.58;101392.44;5096855;28;20571;-65
2023/12/04 05:43:12;;;;;;;1.80;0.57;;;;;;;-2.91;98.43;101394.47;5096450;28;20515;-64
2023/12/04 05:45:39;;;;;;;1.80;0.57;;;;;;;-2.92;98.12;101388.34;5097034;28;20432;-65
2023/12/04 05:48:07;;;;;;;4.53;2.10;;;;;;;-2.89;98.25;101381.81;5096298;28;20531;-64
2023/12/04 05:50:34;;;;;;;2.60;0.87;;;;;;;-2.86;98.20;101376.97;5096286;28;20468;-65
2023/12/04 05:53:01;;;;;;;3.90;3.27;;;;;;;-2.87;98.02;101372.69;5097007;28;20519;-65
2023/12/04 05:55:27;;;;;;;1.70;0.30;;;;;;;-2.79;98.00;101382.31;5096572;28;20488;-65
2023/12/04 05:57:54;;;;;;;3.90;1.57;;;;;;;-2.78;98.12;101383.97;5096443;28;20559;-65
2023/12/04 06:00:21;;;;;;;1.70;0.50;;;;;;;-2.72;98.27;101382.38;5096524;28;20493;-64
2023/12/04 06:02:48;;;;;;;1.90;0.70;;;;;;;-2.70;98.28;101382.97;5096281;28;20501;-63
2023/12/04 06:05:16;;;;;;;1.77;0.50;;;;;;;-2.65;98.63;101383.25;5096132;28;20460;-63
2023/12/04 06:07:43;;;;;;;2.93;1.73;;;;;;;-2.68;98.66;101379.13;5096339;28;20459;-63
2023/12/04 06:10:10;;;;;;;2.70;1.37;;;;;;;-2.65;99.35;101375.28;5095729;28;20558;-64
2023/12/04 06:12:37;;;;;;;1.83;0.77;;;;;;;-2.68;98.98;101373.00;5095468;28;20449;-64
2023/12/04 06:15:03;;;;;;;1.70;0.30;;;;;;;-2.66;99.74;101368.31;5096150;28;20469;-64
2023/12/04 06:17:30;;;;;;;4.67;1.50;;;;;;;-2.63;100.00;101368.75;5096514;28;20441;-64
2023/12/04 06:19:57;;;;;;;1.70;0.40;;;;;;;-2.54;99.98;101372.88;5096597;28;20436;-64
2023/12/04 06:22:26;;;;;;;9.33;3.73;;;;;;;-2.47;99.97;101370.28;5096414;28;20472;-64
2023/12/04 06:24:53;;;;;;;1.80;0.50;;;;;;;-2.47;100.00;101370.28;5096437;28;20460;-64
2023/12/04 06:27:20;;;;;;;1.87;0.60;;;;;;;-2.44;100.00;101367.22;5096377;28;20472;-65
2023/12/04 06:29:48;;;;;;;4.00;2.23;;;;;;;-2.44;100.00;101371.72;5096214;28;20443;-65
2023/12/04 06:32:16;;;;;;;1.70;0.40;;;;;;;-2.42;99.70;101367.88;5095848;28;20809;-65
2023/12/04 06:34:43;;;;;;;2.77;1.00;;;;;;;-2.46;98.89;101371.09;5095921;28;20575;-65
2023/12/04 06:37:11;;;;;;;4.43;1.53;;;;;;;-2.46;99.09;101368.44;5095461;28;20989;-65
2023/12/04 06:39:41;;;;;;;1.70;0.50;;;;;;;-2.47;98.60;101367.63;5095733;28;20484;-64
2023/12/04 06:42:09;;;;;;;2.23;0.83;;;;;;;-2.46;98.60;101363.16;5095674;28;20464;-64
2023/12/04 06:44:36;;;;;;;3.40;0.80;;;;;;;-2.45;98.76;101362.94;5095625;28;20464;-64
2023/12/04 06:47:04;;;;;;;17.30;1.80;;;;;;;-2.54;97.89;101362.28;5095429;28;20523;-64
2023/12/04 06:49:32;;;;;;;1.80;0.60;;;;;;;-2.52;98.17;101351.50;5095461;28;20464;-64
2023/12/04 06:51:59;;;;;;;1.80;0.50;;;;;;;-2.49;98.41;101351.09;5095034;28;20441;-64
2023/12/04 06:54:26;;;;;;;1.77;0.50;;;;;;;-2.43;98.69;101347.66;5095195;28;20535;-64
2023/12/04 06:56:54;;;;;;;2.90;1.27;;;;;;;-2.48;98.55;101343.94;5095784;28;20491;-64
2023/12/04 06:59:21;;;;;;;2.67;0.97;;;;;;;-2.44;98.44;101335.41;5095087;28;20519;-64
2023/12/04 07:01:47;;;;;;;2.00;0.80;;;;;;;-2.42;98.47;101349.31;5094888;28;20523;-64
2023/12/04 07:04:20;;;;;;;1.97;0.87;;;;;;;-2.39;98.75;101340.97;5095235;28;20484;-64
2023/12/04 07:06:47;;;;;;;2.80;1.90;;;;;;;-2.37;98.17;101338.91;5095233;28;20494;-64
2023/12/04 07:09:14;;;;;;;2.83;1.40;;;;;;;-2.33;98.24;101347.31;5095703;28;20432;-64
2023/12/04 07:11:40;;;;;;;1.97;0.80;;;;;;;-2.29;98.30;101344.06;5095213;28;20443;-64
2023/12/04 07:14:08;;;;;;;1.80;0.50;;;;;;;-2.25;97.75;101335.72;5093424;22;20493;-70
2023/12/04 07:16:40;;;;;;;1.90;0.70;;;;;;;-2.25;98.02;101338.38;5075086;28;20951;-70
2023/12/04 07:19:06;;;;;;;2.50;1.13;;;;;;;-2.23;97.81;101339.78;5074941;28;20465;-71
2023/12/04 07:21:33;;;;;;;1.90;0.60;;;;;;;-2.14;98.35;101335.13;5074313;28;20439;-67
2023/12/04 07:24:00;;;;;;;3.90;1.70;;;;;;;-2.10;99.37;101336.38;5074874;28;20489;-69
2023/12/04 07:26:26;;;;;;;1.80;0.40;;;;;;;-2.01;99.13;101335.19;5074818;28;20472;-69
2023/12/04 07:28:53;;;;;;;1.70;0.50;;;;;;;-1.95;99.00;101336.22;5074859;28;20429;-73
2023/12/04 07:31:21;;;;;;;2.10;0.67;;;;;;;-1.98;98.60;101337.44;5074455;28;20446;-70
2023/12/04 07:33:48;;;;;;;2.13;1.07;;;;;;;-1.99;98.17;101325.19;5074571;28;20485;-70
2023/12/04 07:36:14;;;;;;;10.80;1.27;;;;;;;-1.92;97.98;101323.38;5074332;28;20499;-70
2023/12/04 07:38:41;;;;;;;1.70;0.40;;;;;;;-1.88;97.62;101321.94;5074249;28;20527;-71
2023/12/04 07:41:08;;;;;;;2.63;1.03;;;;;;;-1.87;97.64;101325.41;5074336;28;20451;-71
2023/12/04 07:43:34;;;;;;;3.40;2.30;;;;;;;-1.78;98.39;101327.69;5074453;28;20548;-68
2023/12/04 07:46:01;;;;;;;1.80;0.50;;;;;;;-1.73;97.78;101329.72;5074452;28;20461;-70
2023/12/04 07:48:29;;;;;;;5.43;2.23;;;;;;;-1.72;97.62;101333.22;5074441;28;20465;-68
2023/12/04 07:50:56;;;;;;;2.30;0.93;;;;;;;-1.67;97.90;101334.25;5074087;28;20428;-72
2023/12/04 07:53:22;;;;;;;2.20;1.07;;;;;;;-1.64;98.52;101323.25;5073822;28;20514;-71
2023/12/04 07:55:50;;;;;;;7.73;4.83;;;;;;;-1.56;98.82;101324.84;5073943;28;20438;-71
2023/12/04 07:58:17;;;;;;;3.50;2.10;;;;;;;-1.51;99.46;101322.41;5073775;28;20583;-71
2023/12/04 08:00:44;;;;;;;17.97;2.13;;;;;;;-1.40;99.06;101326.31;5074946;28;20949;-71
2023/12/04 08:03:11;;;;;;;2.57;1.00;;;;;;;-1.37;98.86;101323.25;5074114;28;20790;-71
2023/12/04 08:05:39;;;;;;;2.03;0.83;;;;;;;-1.30;97.99;101322.22;5073995;28;21024;-71
2023/12/04 08:08:06;;;;;;;3.13;1.10;;;;;;;-1.31;97.55;101323.25;5074010;28;20879;-71
2023/12/04 08:10:32;;;;;;;4.97;2.77;;;;;;;-1.23;97.24;101327.56;5074003;28;20844;-72
2023/12/04 08:13:00;;;;;;;5.40;2.80;;;;;;;-1.28;96.19;101320.19;5073677;28;20532;-71
2023/12/04 08:15:26;;;;;;;1.77;0.40;;;;;;;-1.25;96.31;101320.78;5073841;28;20557;-70
2023/12/04 08:17:53;;;;;;;6.40;3.10;;;;;;;-1.15;96.49;101321.19;5074236;28;20483;-70
2023/12/04 08:20:22;;;;;;;2.57;1.50;;;;;;;-1.10;95.92;101308.94;5073894;28;20481;-70
2023/12/04 08:22:50;;;;;;;1.80;0.50;;;;;;;-1.10;96.23;101308.13;5074276;28;20441;-70
2023/12/04 08:25:17;;;;;;;2.97;1.73;;;;;;;-1.06;96.01;101306.69;5073847;28;20962;-70
2023/12/04 08:27:44;;;;;;;1.80;0.50;;;;;;;-1.00;96.01;101311.19;5074264;28;20472;-70
2023/12/04 08:30:11;;;;;;;1.90;0.93;;;;;;;-0.91;96.23;101317.09;5074305;28;20438;-70
2023/12/04 08:32:37;;;;;;;2.63;1.10;;;;;;;-0.90;95.66;101318.72;5073720;28;20524;-70
2023/12/04 08:35:06;;;;;;;2.47;0.97;;;;;;;-0.86;95.54;101318.09;5072805;28;20485;-70
2023/12/04 08:37:32;;;;;;;5.57;2.20;;;;;;;-0.78;95.18;101317.88;5073838;28;20499;-70
2023/12/04 08:40:00;;;;;;;2.77;0.80;;;;;;;-0.81;95.35;101312.97;5073736;28;20513;-70
2023/12/04 08:42:27;;;;;;;2.20;0.70;;;;;;;-0.78;94.93;101307.25;5074031;28;20467;-70
2023/12/04 08:44:54;;;;;;;6.43;2.43;;;;;;;-0.78;95.14;101307.25;5073678;28;20623;-70
2023/12/04 08:47:20;;;;;;;3.60;2.53;;;;;;;-0.66;95.25;101302.13;5073684;28;20476;-67
2023/12/04 08:49:47;;;;;;;3.40;1.77;;;;;;;-0.54;94.87;101296.94;5073173;28;20800;-68
2023/12/04 08:52:14;;;;;;;2.90;1.37;;;;;;;-0.47;94.95;101303.06;5073301;28;20451;-68
2023/12/04 08:54:42;;;;;;;4.17;2.70;;;;;;;-0.45;94.36;101309.00;5073687;28;20500;-69
2023/12/04 08:57:10;;;;;;;3.47;2.60;;;;;;;-0.41;94.41;101306.72;5073259;28;20528;-68
2023/12/04 08:59:37;;;;;;;2.77;1.00;;;;;;;-0.28;94.41;101312.81;5073828;28;20493;-68
2023/12/04 09:02:04;;;;;;;2.60;1.70;;;;;;;-0.24;93.49;101310.56;5073769;28;20880;-68
2023/12/04 09:04:30;;;;;;;3.90;1.60;;;;;;;-0.18;93.45;101301.72;5073638;28;20483;-68
2023/12/04 09:06:57;;;;;;;1.80;0.40;;;;;;;-0.15;93.30;101303.16;5073060;28;20509;-68
2023/12/04 09:09:23;;;;;;;3.70;2.47;;;;;;;-0.11;92.96;101307.03;5073617;28;20464;-68
2023/12/04 09:11:50;;;;;;;2.10;1.07;;;;;;;-0.13;92.81;101303.75;5073537;28;20440;-68
2023/12/04 09:14:18;;;;;;;4.07;1.90;;;;;;;-0.14;93.24;101305.59;5073146;28;20469;-68
2023/12/04 09:16:45;;;;;;;6.53;2.67;;;;;;;-0.08;93.09;101306.59;5073657;28;20524;-68
2023/12/04 09:19:11;;;;;;;7.00;2.67;;;;;;;-0.04;92.94;101313.13;5073354;28;20487;-68
2023/12/04 09:21:39;;;;;;;2.90;1.37;;;;;;;-0.03;93.03;101310.25;5073473;28;20448;-68
2023/12/04 09:24:06;;;;;;;2.20;1.10;;;;;;;0.01;92.32;101304.50;5073445;28;20548;-68
2023/12/04 09:26:34;;;;;;;2.90;1.20;;;;;;;0.02;91.98;101296.28;5073216;28;21024;-68
2023/12/04 09:29:00;;;;;;;2.10;0.83;;;;;;;-0.01;91.35;101304.69;5073075;28;20477;-68
2023/12/04 09:31:29;;;;;;;2.87;1.33;;;;;;;-0.02;90.97;101311.06;5073342;28;20437;-68
2023/12/04 09:33:55;;;;;;;3.40;1.73;;;;;;;0.04;90.81;101306.72;5072981;28;20527;-68
2023/12/04 09:36:22;;;;;;;3.50;2.33;;;;;;;0.00;90.49;101311.69;5073035;28;20438;-68
2023/12/04 09:38:49;;;;;;;3.50;1.27;;;;;;;-0.06;90.03;101313.34;5072545;28;20516;-68
2023/12/04 09:41:17;;;;;;;3.70;1.43;;;;;;;-0.05;89.97;101311.47;5073196;28;20532;-68
2023/12/04 09:43:45;;;;;;;2.37;0.90;;;;;;;-0.03;89.94;101309.44;5072593;28;20969;-68
2023/12/04 09:46:12;;;;;;;3.30;1.60;;;;;;;0.03;89.72;101311.25;5073691;28;20874;-68
2023/12/04 09:48:42;;;;;;;2.60;1.60;;;;;;;0.04;89.81;101301.41;5076328;28;20484;-68
2023/12/04 09:51:10;;;;;;;3.27;1.60;;;;;;;0.02;89.80;101290.97;5076537;28;20422;-68
2023/12/04 09:53:37;;;;;;;2.67;1.83;;;;;;;0.00;89.70;101295.72;5076253;28;20457;-68
2023/12/04 09:56:05;;;;;;;2.43;0.63;;;;;;;0.04;89.65;101288.91;5076261;28;20528;-68
2023/12/04 09:58:32;;;;;;;1.93;0.67;;;;;;;0.08;89.53;101291.97;5076371;28;20441;-70
2023/12/04 10:01:00;;;;;;;6.57;4.10;;;;;;;0.05;89.58;101295.88;5076211;28;20472;-70
2023/12/04 10:03:27;;;;;;;2.20;1.30;;;;;;;0.08;89.87;101290.09;5075889;28;20497;-70
2023/12/04 10:05:56;;;;;;;6.97;1.80;;;;;;;0.09;89.46;101296.25;5075987;28;20448;-70
2023/12/04 10:08:22;;;;;;;5.20;2.40;;;;;;;0.16;89.49;101287.19;5076330;28;20441;-69
2023/12/04 10:10:49;;;;;;;2.67;1.27;;;;;;;0.23;90.34;101293.31;5076130;28;20561;-69
2023/12/04 10:13:16;;;;;;;3.67;1.30;;;;;;;0.33;90.04;101282.16;5075798;28;20560;-69
2023/12/04 10:15:47;;;;;;;3.00;1.90;;;;;;;0.32;88.71;101285.88;5075854;28;20476;-69
2023/12/04 10:18:26;;;;;;;3.70;2.33;;;;;;;0.38;88.73;101278.84;5075634;28;20917;-69
2023/12/04 10:20:54;;;;;;;3.50;1.37;;;;;;;0.45;88.41;101279.63;5075670;28;20472;-69
2023/12/04 10:23:23;;;;;;;2.60;1.53;;;;;;;0.47;87.97;101277.56;5075543;28;20437;-69
2023/12/04 10:25:50;;;;;;;4.80;2.97;;;;;;;0.43;87.68;101268.34;5075937;28;20433;-69
2023/12/04 10:28:18;;;;;;;3.57;0.87;;;;;;;0.44;87.73;101262.00;5075889;28;20445;-69
2023/12/04 10:30:44;;;;;;;1.90;0.50;;;;;;;0.49;87.46;101256.84;5075399;28;20947;-69
2023/12/04 10:33:12;;;;;;;2.60;1.57;;;;;;;0.38;87.32;101250.34;5075554;28;20465;-70
2023/12/04 10:35:39;;;;;;;3.30;1.70;;;;;;;0.46;88.31;101251.94;5075676;28;20470;-69
2023/12/04 10:38:06;;;;;;;6.57;2.47;;;;;;;0.50;87.48;101240.63;5075818;28;20909;-69
2023/12/04 10:40:36;;;;;;;5.93;2.23;;;;;;;0.55;87.27;101233.84;5075793;28;20521;-69
2023/12/04 10:43:15;;;;;;;3.50;1.70;;;;;;;0.62;86.76;101237.25;5075952;28;20437;-69
2023/12/04 10:45:45;;;;;;;9.10;1.80;;;;;;;0.60;86.74;101231.31;5075318;28;20504;-74
2023/12/04 10:48:12;;;;;;;3.10;1.73;;;;;;;0.62;86.48;101227.41;5075052;28;20854;-71
2023/12/04 10:50:40;;;;;;;3.90;1.70;;;;;;;0.59;87.63;101227.03;5075016;28;21009;-73
2023/12/04 10:53:07;;;;;;;2.10;0.77;;;;;;;0.62;87.89;101222.09;5074921;28;20512;-73
2023/12/04 10:55:36;;;;;;;4.37;2.33;;;;;;;0.56;87.12;101209.63;5074771;28;20536;-72
2023/12/04 10:58:06;;;;;;;2.67;1.43;;;;;;;0.58;87.01;101207.56;5074620;28;20568;-72
2023/12/04 11:00:35;;;;;;;2.40;1.60;;;;;;;0.54;87.04;101209.03;5074873;28;20486;-73
2023/12/04 11:03:07;;;;;;;3.83;1.53;;;;;;;0.57;86.83;101197.09;5074946;28;20483;-71
2023/12/04 11:05:38;;;;;;;5.40;0.90;;;;;;;0.61;86.90;101193.78;5074624;28;20860;-71
2023/12/04 11:08:06;;;;;;;7.13;4.17;;;;;;;0.56;87.10;101195.47;5074891;28;20769;-71
2023/12/04 11:10:40;;;;;;;2.33;1.20;;;;;;;0.41;87.64;101185.16;5074939;28;20440;-70
2023/12/04 11:13:12;;;;;;;2.63;1.70;;;;;;;0.45;87.51;101184.50;5074845;28;20456;-71
2023/12/04 11:15:41;;;;;;;2.40;1.57;;;;;;;0.48;87.52;101184.06;5075007;28;20450;-70
2023/12/04 11:18:13;;;;;;;1.80;0.47;;;;;;;0.52;87.03;101175.63;5074780;28;20441;-71
2023/12/04 11:20:45;;;;;;;2.37;1.00;;;;;;;0.60;86.98;101175.34;5074884;28;20501;-70
2023/12/04 11:23:14;;;;;;;2.83;1.80;;;;;;;0.61;87.53;101176.97;5074811;28;20506;-70
2023/12/04 11:25:43;;;;;;;2.30;1.17;;;;;;;0.66;87.50;101185.94;5074110;28;21021;-71